Time;durP1;ratioP1;P1;durP2;ratioP2;P2;SDS_P1;SDS_P2;PMS_P1;PMS_P2;Temp;Humidity;BMP_temperature;BMP_pressure;BME280_temperature;BME280_humidity;BME280_pressure;Samples;Min_cycle;Max_cycle;Signal;HPM_P1;HPM_P2
2021/08/17 03:15:11;;;;;;;24.73;14.48;;;;;;;22.11;62.65;99563.47;5199168;23;20520;-83
2021/08/17 03:17:38;;;;;;;27.52;14.35;;;;;;;22.34;61.17;99566.06;4916084;29;20044;-82
2021/08/17 03:20:06;;;;;;;28.73;13.98;;;;;;;22.47;60.56;99572.16;4912188;29;20047;-88
2021/08/17 03:22:32;;;;;;;25.88;13.63;;;;;;;22.68;60.50;99577.06;4908117;29;20063;-85
2021/08/17 03:24:58;;;;;;;24.33;12.50;;;;;;;22.95;59.95;99578.47;4921241;29;20040;-88
2021/08/17 03:27:25;;;;;;;23.00;13.07;;;;;;;23.14;59.33;99582.13;4897009;29;20291;-87
2021/08/17 03:29:52;;;;;;;20.67;12.40;;;;;;;23.24;58.51;99578.59;4901672;29;20448;-81
2021/08/17 03:32:18;;;;;;;26.80;14.40;;;;;;;23.12;58.20;99568.59;4904004;29;20048;-83
2021/08/17 03:34:44;;;;;;;19.67;12.73;;;;;;;23.21;58.60;99577.41;4907854;29;20055;-79
2021/08/17 03:37:10;;;;;;;21.43;10.97;;;;;;;23.38;56.89;99584.25;4911059;29;20836;-83
2021/08/17 03:39:36;;;;;;;18.55;12.15;;;;;;;23.46;56.67;99590.63;4907533;29;20044;-84
2021/08/17 03:42:03;;;;;;;17.80;11.20;;;;;;;23.40;57.59;99583.81;4908087;29;20044;-82
2021/08/17 03:44:32;;;;;;;20.67;10.68;;;;;;;23.25;55.77;99584.97;4920355;29;20043;-82
2021/08/17 03:46:58;;;;;;;20.55;10.75;;;;;;;23.53;56.54;99587.84;4908140;29;20127;-82
2021/08/17 03:49:25;;;;;;;20.65;10.93;;;;;;;23.65;56.74;99584.72;4905986;29;20097;-87
2021/08/17 03:51:50;;;;;;;23.77;10.73;;;;;;;23.66;55.20;99594.69;4905741;29;20083;-83
2021/08/17 03:54:16;;;;;;;32.13;10.73;;;;;;;23.64;55.40;99580.34;4903676;29;20649;-88
2021/08/17 03:56:42;;;;;;;31.13;11.07;;;;;;;23.56;54.89;99583.50;4906996;29;20418;-87
2021/08/17 03:59:08;;;;;;;44.80;11.13;;;;;;;23.57;56.16;99583.09;4906574;29;20119;-82
2021/08/17 04:01:34;;;;;;;15.73;9.05;;;;;;;23.59;55.12;99575.13;4909011;29;20044;-82
2021/08/17 04:04:00;;;;;;;16.13;9.35;;;;;;;23.81;54.72;99603.94;4908449;29;20051;-89
2021/08/17 04:06:26;;;;;;;28.70;8.85;;;;;;;23.86;54.56;99602.72;4912252;29;20056;-82
2021/08/17 04:08:53;;;;;;;22.52;8.60;;;;;;;23.98;54.02;99595.97;4915227;29;20524;-88
2021/08/17 04:11:19;;;;;;;23.83;9.65;;;;;;;24.03;54.99;99593.56;4915458;29;20564;-81
2021/08/17 05:17:04;;;;;;;54.73;11.00;;;;;;;22.71;58.47;99570.72;4904023;29;20068;-83
2021/08/17 05:19:31;;;;;;;58.40;11.25;;;;;;;22.75;58.50;99571.56;4899111;29;20301;-87
2021/08/17 05:21:57;;;;;;;47.17;11.40;;;;;;;22.67;59.09;99550.38;4899915;29;20044;-88
2021/08/17 05:24:24;;;;;;;54.67;10.48;;;;;;;22.65;58.97;99541.59;4901328;29;20067;-87
2021/08/17 05:26:50;;;;;;;33.20;10.25;;;;;;;22.72;59.03;99548.03;4917190;29;20075;-91
2021/08/17 05:29:16;;;;;;;103.45;14.38;;;;;;;22.74;59.53;99542.84;4901291;29;20036;-89
2021/08/17 05:31:43;;;;;;;110.03;14.63;;;;;;;22.76;60.61;99542.47;4918161;29;20047;-87
2021/08/17 05:34:09;;;;;;;91.80;13.30;;;;;;;22.70;60.68;99539.25;4918124;29;20127;-87
2021/08/17 05:36:35;;;;;;;64.57;13.57;;;;;;;22.74;60.79;99533.69;4918019;29;20095;-89
2021/08/17 05:39:01;;;;;;;;;;;;;;;22.90;60.68;99555.69;4917230;29;20285;-90
2021/08/17 05:41:28;;;;;;;53.80;12.07;;;;;;;22.68;60.63;99511.00;4916677;29;19923;-90
2021/08/17 05:43:54;;;;;;;57.63;10.73;;;;;;;23.01;60.53;99551.00;4916779;29;20048;-91
2021/08/17 05:46:20;;;;;;;67.37;12.90;;;;;;;22.99;60.04;99531.09;4916469;29;20421;-89
2021/08/17 05:48:46;;;;;;;35.63;10.67;;;;;;;23.09;59.81;99535.91;4901048;29;20877;-89
2021/08/17 05:51:12;;;;;;;45.13;12.10;;;;;;;22.97;60.46;99500.00;4901011;29;20561;-89
2021/08/17 05:53:39;;;;;;;39.67;11.07;;;;;;;23.11;59.43;99502.03;4917494;29;20101;-89
2021/08/17 05:56:05;;;;;;;56.60;14.13;;;;;;;23.37;59.77;99520.44;4900595;29;20056;-89
2021/08/17 05:58:32;;;;;;;56.42;12.57;;;;;;;23.47;58.19;99519.66;4916160;29;20327;-89
2021/08/17 06:00:58;;;;;;;207.27;22.17;;;;;;;23.48;58.30;99498.97;4916254;29;20088;-88
2021/08/17 06:03:25;;;;;;;53.83;10.52;;;;;;;23.78;56.77;99534.94;4917616;29;20091;-90
2021/08/17 06:05:51;;;;;;;56.33;11.13;;;;;;;23.76;56.43;99512.19;4885223;29;20458;-89
2021/08/17 06:08:19;;;;;;;36.90;9.35;;;;;;;23.83;55.87;99497.44;4917464;29;20296;-89
2021/08/17 06:10:45;;;;;;;23.47;9.23;;;;;;;24.03;55.28;99515.38;4900488;29;20126;-89
2021/08/17 06:13:11;;;;;;;51.85;10.63;;;;;;;23.95;55.60;99485.06;4931732;29;20379;-89
2021/08/17 06:15:37;;;;;;;35.45;9.93;;;;;;;24.23;56.01;99501.00;4915924;29;20155;-88
2021/08/17 06:18:05;;;;;;;58.65;11.48;;;;;;;24.39;55.95;99504.19;4900219;29;20048;-89
2021/08/17 06:20:32;;;;;;;40.22;9.82;;;;;;;24.72;56.32;99519.69;4915383;29;20103;-88
2021/08/17 06:22:59;;;;;;;37.10;10.60;;;;;;;24.66;55.25;99506.53;4931938;29;20107;-89
2021/08/17 06:25:25;;;;;;;41.45;10.18;;;;;;;24.76;56.14;99505.72;4900508;29;20450;-89
2021/08/17 06:27:52;;;;;;;24.23;8.90;;;;;;;24.79;55.02;99514.09;4915894;29;20112;-89
2021/08/17 06:33:14;;;;;;;176.43;17.73;;;;;;;24.92;55.82;99517.25;5986961;23;20128;-84
2021/08/17 06:35:40;;;;;;;83.63;12.70;;;;;;;24.87;55.08;99505.66;4917800;29;20481;-80
2021/08/17 06:38:06;;;;;;;26.27;9.43;;;;;;;24.98;54.44;99521.22;4914499;29;20088;-83
2021/08/17 06:40:33;;;;;;;24.58;10.32;;;;;;;25.06;56.00;99528.34;4898041;29;20131;-83
2021/08/17 06:42:59;;;;;;;30.15;9.88;;;;;;;25.06;55.19;99519.19;4907300;29;20593;-84
2021/08/17 06:45:26;;;;;;;21.67;9.50;;;;;;;25.11;54.77;99526.38;4916405;29;20036;-83
2021/08/17 06:47:55;;;;;;;28.38;10.05;;;;;;;25.20;55.00;99532.34;4916661;29;20051;-83
2021/08/17 06:50:21;;;;;;;28.50;9.50;;;;;;;25.30;55.56;99529.50;4915421;29;20185;-83
2021/08/17 06:52:48;;;;;;;26.33;9.43;;;;;;;25.31;54.80;99516.31;4917726;29;20056;-84
2021/08/17 06:55:16;;;;;;;27.67;10.20;;;;;;;25.30;53.37;99511.91;4916885;29;20048;-88
2021/08/17 06:57:42;;;;;;;41.00;9.35;;;;;;;25.31;53.29;99524.69;4922348;29;20110;-86
2021/08/17 07:00:10;;;;;;;85.18;11.70;;;;;;;25.26;54.06;99502.72;4919647;29;20513;-88
2021/08/17 07:02:37;;;;;;;178.23;20.27;;;;;;;25.11;53.08;99496.38;4919267;29;20214;-88
2021/08/17 07:05:05;;;;;;;63.40;10.95;;;;;;;25.43;53.61;99541.03;4921309;29;20051;-96
2021/08/17 07:07:32;;;;;;;53.03;11.70;;;;;;;25.50;53.92;99531.81;4925301;29;20051;-96
2021/08/17 07:09:59;;;;;;;98.03;14.07;;;;;;;25.50;53.98;99527.00;4923345;29;20055;-95
2021/08/17 07:12:25;;;;;;;50.22;10.48;;;;;;;25.60;53.75;99535.75;4924464;29;20051;-87
2021/08/17 07:14:52;;;;;;;33.03;8.88;;;;;;;25.58;53.34;99532.53;4918865;29;20107;-87
2021/08/17 07:17:18;;;;;;;14.80;8.60;;;;;;;25.58;53.88;99529.75;4918040;29;20040;-88
2021/08/17 07:19:45;;;;;;;18.90;9.60;;;;;;;25.68;52.54;99545.69;4918271;29;20074;-88
2021/08/17 07:22:11;;;;;;;19.52;9.07;;;;;;;25.59;53.83;99525.72;4916547;29;20071;-87
2021/08/17 07:24:38;;;;;;;16.40;10.00;;;;;;;25.65;53.45;99521.28;4918468;29;20092;-90
2021/08/17 07:27:04;;;;;;;24.63;9.43;;;;;;;25.76;52.78;99524.81;4919666;29;20052;-87
2021/08/17 07:29:35;;;;;;;84.40;14.27;;;;;;;25.87;53.83;99536.78;4923848;29;20036;-87
2021/08/17 07:32:02;;;;;;;;;;;;;;;25.93;53.58;99537.94;4915110;29;20040;-85
2021/08/17 07:34:29;;;;;;;25.30;10.63;;;;;;;25.87;53.15;99513.56;4913764;29;19923;-88
2021/08/17 07:36:55;;;;;;;18.85;9.20;;;;;;;25.95;51.99;99521.50;4915437;29;20044;-93
2021/08/17 07:39:23;;;;;;;20.75;9.07;;;;;;;25.89;52.66;99506.34;4915708;29;20118;-88
2021/08/17 07:41:51;;;;;;;27.80;9.95;;;;;;;26.12;52.63;99532.97;4912888;29;20139;-89
2021/08/17 07:44:19;;;;;;;23.92;11.88;;;;;;;26.08;52.23;99518.19;4915338;29;20135;-87
2021/08/17 07:46:45;;;;;;;17.48;9.88;;;;;;;26.06;51.22;99510.22;4892921;29;20071;-88
2021/08/17 07:49:12;;;;;;;27.35;12.52;;;;;;;26.15;50.11;99524.53;4912071;29;20040;-88
2021/08/17 07:51:38;;;;;;;24.00;11.95;;;;;;;26.13;50.69;99515.75;4896866;29;20048;-88
2021/08/17 07:54:04;;;;;;;17.75;10.20;;;;;;;26.32;50.94;99536.78;4896096;29;20045;-89
2021/08/17 07:56:30;;;;;;;24.55;10.35;;;;;;;26.36;50.66;99529.16;4913542;29;20044;-89
2021/08/17 07:58:56;;;;;;;20.08;10.60;;;;;;;26.36;50.99;99517.16;4910894;29;20889;-89
2021/08/17 08:01:23;;;;;;;26.88;10.35;;;;;;;26.42;50.92;99513.50;4909999;29;20047;-87
2021/08/17 08:03:51;;;;;;;30.02;10.90;;;;;;;26.48;52.87;99511.84;4911288;29;20072;-88
2021/08/17 08:06:17;;;;;;;;;;;;;;;26.75;50.21;99544.00;4911432;29;20048;-88
2021/08/17 08:08:45;;;;;;;28.42;10.57;;;;;;;26.77;49.91;99533.19;4911925;29;19959;-88
2021/08/17 08:11:11;;;;;;;29.02;10.00;;;;;;;26.63;49.66;99518.09;4909269;29;20044;-88
2021/08/17 08:13:36;;;;;;;33.70;12.07;;;;;;;26.78;49.15;99527.13;4891809;29;20581;-90
2021/08/17 08:16:03;;;;;;;20.45;11.30;;;;;;;26.65;49.66;99501.63;4892138;29;20085;-88
2021/08/17 08:18:30;;;;;;;22.67;10.27;;;;;;;26.90;48.76;99523.00;4909930;29;20061;-90
2021/08/17 08:20:55;;;;;;;23.73;10.35;;;;;;;26.86;49.61;99506.22;4892640;29;20067;-89
2021/08/17 08:23:24;;;;;;;25.20;10.80;;;;;;;26.95;49.18;99516.91;4909583;29;20517;-87
2021/08/17 08:25:49;;;;;;;20.40;9.48;;;;;;;26.87;50.04;99499.38;4909156;29;20051;-88
2021/08/17 08:28:16;;;;;;;55.58;10.95;;;;;;;27.12;48.10;99523.56;4907572;29;20040;-87
2021/08/17 08:30:43;;;;;;;49.13;10.55;;;;;;;27.14;49.15;99515.53;4891639;29;20040;-85
2021/08/17 08:33:09;;;;;;;26.45;9.88;;;;;;;27.27;49.79;99533.38;4907159;29;20386;-86
2021/08/17 08:35:35;;;;;;;30.15;10.15;;;;;;;27.23;48.84;99513.00;4908129;29;20076;-90
2021/08/17 08:38:05;;;;;;;19.88;11.00;;;;;;;27.52;48.62;99521.03;4909803;29;20040;-81
2021/08/17 08:40:31;;;;;;;23.33;9.80;;;;;;;27.72;48.09;99527.56;4909910;29;20044;-84
2021/08/17 08:42:58;;;;;;;27.48;12.05;;;;;;;27.76;49.05;99525.50;4915454;29;20048;-84
2021/08/17 08:45:25;;;;;;;155.43;14.68;;;;;;;27.93;47.61;99522.84;4909370;29;20574;-83
2021/08/17 08:47:51;;;;;;;32.05;10.20;;;;;;;28.05;46.69;99523.03;4912131;29;20040;-85
2021/08/17 08:50:18;;;;;;;22.70;9.70;;;;;;;28.07;46.71;99525.41;4910086;29;20456;-89
2021/08/17 08:52:45;;;;;;;17.33;9.73;;;;;;;28.16;46.68;99517.22;4907067;29;20040;-83
2021/08/17 08:55:11;;;;;;;21.13;10.57;;;;;;;28.25;46.96;99520.28;4896586;29;20044;-84
2021/08/17 08:57:37;;;;;;;30.88;10.60;;;;;;;28.27;45.45;99520.63;4898583;29;20041;-81
2021/08/17 09:00:05;;;;;;;;;;;;;;;28.32;46.48;99522.97;4889906;29;20202;-85
2021/08/17 09:02:32;;;;;;;26.30;9.90;;;;;;;28.51;46.13;99529.91;4889200;29;19986;-83
2021/08/17 09:05:00;;;;;;;20.70;10.50;;;;;;;28.56;45.82;99528.59;4891017;29;20032;-81
2021/08/17 09:07:42;;;;;;;22.00;10.63;;;;;;;28.62;46.03;99538.13;4902129;29;20044;-81
2021/08/17 09:10:14;;;;;;;22.13;9.95;;;;;;;28.68;45.71;99525.16;4911314;29;20540;-81
2021/08/17 09:12:50;;;;;;;15.25;10.13;;;;;;;28.68;45.40;99525.16;4910116;29;20115;-81
2021/08/17 09:15:20;;;;;;;14.30;9.73;;;;;;;28.79;45.81;99528.56;4910576;29;20051;-81
2021/08/17 09:18:11;;;;;;;21.83;11.25;;;;;;;28.83;45.49;99519.25;4909802;29;20086;-81
2021/08/17 09:20:47;;;;;;;26.25;11.00;;;;;;;28.83;45.91;99517.22;4905671;29;20047;-81
2021/08/17 09:23:32;;;;;;;35.28;11.55;;;;;;;28.79;45.30;99503.22;4913857;29;20043;-82
2021/08/17 09:26:21;;;;;;;19.00;10.30;;;;;;;28.83;45.24;99508.78;4913162;29;20131;-80
2021/08/17 09:29:00;;;;;;;23.20;10.43;;;;;;;28.95;44.82;99515.78;4910369;29;20588;-80
2021/08/17 09:31:46;;;;;;;27.85;10.05;;;;;;;29.03;44.69;99514.44;4911790;29;20063;-80
2021/08/17 09:34:13;;;;;;;24.40;10.60;;;;;;;29.07;44.08;99501.06;4899259;29;20105;-79
2021/08/17 09:36:41;;;;;;;27.60;11.75;;;;;;;29.08;44.23;99497.03;4902533;29;20139;-80
2021/08/17 09:39:08;;;;;;;16.02;10.05;;;;;;;29.12;44.60;99499.78;4903908;29;20112;-83
2021/08/17 09:41:35;;;;;;;17.45;10.40;;;;;;;29.12;44.56;99500.56;4902654;29;20139;-83
2021/08/17 09:44:06;;;;;;;16.67;10.48;;;;;;;29.17;44.27;99493.63;4902897;29;20036;-81
2021/08/17 09:46:41;;;;;;;16.48;10.30;;;;;;;29.22;43.65;99493.91;4903413;29;20195;-82
2021/08/17 09:49:31;;;;;;;37.42;11.25;;;;;;;29.26;44.08;99488.19;4905334;29;20044;-86
2021/08/17 09:52:07;;;;;;;27.50;10.55;;;;;;;29.33;44.39;99485.22;4900657;29;20547;-93
2021/08/17 09:54:38;;;;;;;18.20;9.93;;;;;;;29.33;43.96;99488.03;4899967;29;20510;-94
2021/08/17 09:57:07;;;;;;;15.48;10.43;;;;;;;29.41;43.59;99495.13;4899803;29;20147;-80
2021/08/17 09:59:35;;;;;;;15.38;10.27;;;;;;;29.45;43.09;99493.00;4900032;29;20040;-81
2021/08/17 10:02:03;;;;;;;16.85;11.30;;;;;;;29.47;43.79;99490.56;4901221;29;20036;-80
2021/08/17 10:04:29;;;;;;;22.63;10.80;;;;;;;29.47;43.36;99489.72;4899915;29;20041;-80
2021/08/17 10:06:58;;;;;;;28.73;10.35;;;;;;;29.51;43.09;99479.19;4899754;29;20036;-83
2021/08/17 10:09:26;;;;;;;28.83;11.13;;;;;;;29.54;43.38;99478.31;4900341;29;20331;-82
2021/08/17 10:11:53;;;;;;;18.33;10.43;;;;;;;29.62;42.93;99474.13;4899508;29;20507;-80
2021/08/17 10:14:19;;;;;;;14.07;10.38;;;;;;;29.63;43.09;99466.47;4916543;29;20159;-80
2021/08/17 10:16:47;;;;;;;19.30;11.27;;;;;;;29.72;42.85;99478.69;4918748;29;20040;-84
2021/08/17 10:19:23;;;;;;;218.52;16.83;;;;;;;29.77;42.92;99470.94;4920032;29;20135;-91
2021/08/17 10:21:51;;;;;;;18.17;10.98;;;;;;;29.81;42.18;99466.03;4918770;29;20094;-80
2021/08/17 10:24:30;;;;;;;19.60;10.98;;;;;;;29.84;41.57;99467.97;4917325;29;20048;-84
2021/08/17 10:27:26;;;;;;;22.77;10.90;;;;;;;29.88;42.39;99463.81;4917453;29;20135;-80
2021/08/17 10:30:01;;;;;;;25.40;10.93;;;;;;;29.88;41.99;99455.38;4917151;29;20140;-81
2021/08/17 10:32:50;;;;;;;46.42;12.20;;;;;;;29.90;41.60;99454.91;4901918;29;20044;-81
2021/08/17 10:35:33;;;;;;;26.25;11.32;;;;;;;29.94;41.03;99459.25;4897942;29;20061;-80
2021/08/17 10:38:10;;;;;;;21.52;10.88;;;;;;;30.00;41.45;99453.88;4898448;29;20049;-83
2021/08/17 10:40:49;;;;;;;22.33;11.00;;;;;;;30.05;41.31;99452.53;4901024;29;20079;-83
2021/08/17 10:43:17;;;;;;;20.23;10.38;;;;;;;30.06;41.51;99451.28;4902286;29;20069;-82
2021/08/17 10:45:55;;;;;;;16.35;11.05;;;;;;;30.15;41.04;99445.81;4903381;29;20056;-83
2021/08/17 10:48:44;;;;;;;17.50;10.27;;;;;;;30.16;40.15;99451.00;4904961;29;20183;-86
2021/08/17 10:51:32;;;;;;;16.08;9.98;;;;;;;30.07;39.96;99422.66;4903985;29;20055;-83
2021/08/17 10:54:04;;;;;;;23.10;10.60;;;;;;;30.22;40.62;99442.03;4907107;29;20048;-83
2021/08/17 10:56:38;;;;;;;19.02;10.10;;;;;;;30.28;40.38;99440.28;4920782;29;20044;-83
2021/08/17 10:59:06;;;;;;;19.55;10.68;;;;;;;30.32;40.94;99441.75;4919907;29;20048;-82
2021/08/17 11:01:32;;;;;;;23.15;10.73;;;;;;;30.39;40.06;99443.59;4916536;29;20036;-81
2021/08/17 11:04:09;;;;;;;22.42;10.48;;;;;;;30.33;39.55;99419.97;4918200;29;20043;-80
2021/08/17 11:06:40;;;;;;;20.73;10.27;;;;;;;30.39;39.39;99429.47;4924959;29;20473;-80
2021/08/17 11:09:31;;;;;;;14.40;10.55;;;;;;;30.44;39.86;99437.41;4919728;29;20052;-81
2021/08/17 11:12:03;;;;;;;23.80;11.90;;;;;;;30.52;39.51;99435.97;4916822;29;20099;-81
2021/08/17 11:14:31;;;;;;;22.70;13.35;;;;;;;30.59;40.08;99430.09;4919008;29;20075;-81
2021/08/17 11:17:19;;;;;;;17.67;10.65;;;;;;;30.62;38.42;99432.03;4924572;29;20055;-80
2021/08/17 11:19:48;;;;;;;18.40;11.32;;;;;;;30.71;36.66;99439.88;4919161;29;20071;-84
2021/08/17 11:22:17;;;;;;;23.75;11.52;;;;;;;30.76;38.05;99435.69;4916650;29;20099;-82
2021/08/17 11:24:54;;;;;;;34.80;12.82;;;;;;;30.79;38.54;99429.19;4919172;29;20059;-79
2021/08/17 11:27:28;;;;;;;15.48;10.70;;;;;;;30.82;38.48;99446.00;4920924;29;20134;-81
2021/08/17 11:29:56;;;;;;;19.52;11.65;;;;;;;30.83;38.03;99433.50;4920756;29;20047;-79
2021/08/17 11:32:35;;;;;;;23.85;11.20;;;;;;;30.83;38.08;99424.25;4918841;29;20398;-80
2021/08/17 11:35:06;;;;;;;28.80;11.95;;;;;;;30.74;38.69;99424.06;4918956;29;20082;-79
2021/08/17 11:37:34;;;;;;;17.45;11.77;;;;;;;30.79;38.58;99420.72;4916977;29;20063;-79
2021/08/17 11:40:03;;;;;;;80.38;13.55;;;;;;;30.83;38.14;99410.91;4914380;29;20068;-81
2021/08/17 11:42:36;;;;;;;51.30;11.95;;;;;;;30.92;38.74;99410.22;4916836;29;20040;-80
2021/08/17 11:45:27;;;;;;;22.83;12.35;;;;;;;30.91;37.64;99414.31;4918661;29;20564;-80
2021/08/17 11:47:55;;;;;;;28.58;11.38;;;;;;;30.88;37.72;99415.97;4916590;29;20459;-80
2021/08/17 11:50:22;;;;;;;21.73;11.32;;;;;;;30.88;37.80;99410.34;4912857;29;20036;-80
2021/08/17 11:52:55;;;;;;;18.60;10.52;;;;;;;30.86;37.56;99412.84;4913497;29;20144;-80
2021/08/17 11:57:53;;;;;;;21.55;11.10;;;;;;;30.94;37.45;99407.75;4915821;29;20178;-80
2021/08/17 12:00:26;;;;;;;28.05;10.75;;;;;;;30.93;36.56;99402.53;4915641;29;20748;-80
2021/08/17 12:02:58;;;;;;;16.55;10.80;;;;;;;30.91;37.19;99394.53;4916059;29;20055;-90
2021/08/17 12:05:27;;;;;;;18.17;12.23;;;;;;;30.95;37.33;99400.06;4914982;29;20036;-82
2021/08/17 12:07:56;;;;;;;70.90;42.75;;;;;;;30.96;37.18;99384.72;4915994;29;20047;-83
2021/08/17 12:10:32;;;;;;;46.65;25.13;;;;;;;31.05;36.93;99394.09;4916744;29;20127;-79
2021/08/17 12:13:02;;;;;;;46.78;25.95;;;;;;;31.12;36.89;99393.06;4917402;29;20091;-79
2021/08/17 12:15:46;;;;;;;27.42;19.15;;;;;;;31.08;36.62;99383.94;4916250;29;20083;-80
2021/08/17 12:18:17;;;;;;;31.40;18.70;;;;;;;31.06;36.84;99377.94;4915442;29;20107;-80
2021/08/17 12:20:43;;;;;;;28.45;17.63;;;;;;;31.04;36.83;99374.78;4915663;29;20059;-85
2021/08/17 12:23:20;;;;;;;32.13;20.92;;;;;;;31.02;36.08;99372.41;4915465;29;20048;-81
2021/08/17 12:25:50;;;;;;;27.15;17.08;;;;;;;30.98;36.07;99368.13;4914892;29;20048;-80
2021/08/17 12:28:34;;;;;;;25.98;16.50;;;;;;;30.94;36.75;99362.59;4915393;29;20474;-80
2021/08/17 12:31:25;;;;;;;19.23;10.20;;;;;;;31.11;34.91;99355.59;4915696;29;20044;-79
2021/08/17 12:34:06;;;;;;;21.70;10.38;;;;;;;31.04;35.66;99352.19;4915344;29;20059;-78
2021/08/17 12:36:37;;;;;;;16.58;9.88;;;;;;;30.94;36.19;99351.28;4915435;29;20044;-81
2021/08/17 12:39:11;;;;;;;43.33;10.82;;;;;;;30.67;35.62;99355.31;4915377;29;20048;-87
2021/08/17 12:41:40;;;;;;;15.75;10.07;;;;;;;30.56;36.18;99363.31;4915513;29;20422;-77
2021/08/17 12:44:15;;;;;;;20.00;10.05;;;;;;;30.67;36.41;99363.00;4910767;29;20398;-78
2021/08/17 12:46:57;;;;;;;71.03;42.73;;;;;;;30.52;36.39;99359.78;4897784;29;20052;-77
2021/08/17 12:49:34;;;;;;;32.08;20.42;;;;;;;30.53;36.91;99355.75;4915313;29;20051;-78
2021/08/17 12:52:20;;;;;;;93.40;63.97;;;;;;;30.37;37.84;99358.63;4915108;29;20441;-78
2021/08/17 12:54:49;;;;;;;35.28;19.70;;;;;;;30.29;37.58;99357.25;4914072;29;20048;-77
2021/08/17 12:57:27;;;;;;;72.80;51.40;;;;;;;30.40;37.65;99352.09;4916247;29;20044;-79
2021/08/17 12:59:54;;;;;;;80.50;51.63;;;;;;;30.30;36.83;99351.19;4918679;29;20103;-77
2021/08/17 13:02:20;;;;;;;57.63;25.63;;;;;;;30.41;37.15;99357.28;4918613;29;20071;-78
2021/08/17 13:04:46;;;;;;;28.80;14.93;;;;;;;30.58;36.14;99355.16;4918636;29;20047;-77
2021/08/17 13:07:12;;;;;;;26.45;15.80;;;;;;;30.78;36.36;99355.00;4918826;29;20091;-81
2021/08/17 13:09:38;;;;;;;35.70;22.02;;;;;;;30.85;36.35;99363.25;4918900;29;20052;-91
2021/08/17 13:12:06;;;;;;;26.65;16.13;;;;;;;30.96;36.77;99354.47;4922255;29;20044;-80
2021/08/17 13:14:33;;;;;;;31.13;21.38;;;;;;;30.94;36.00;99345.66;4918528;29;20549;-81
2021/08/17 13:16:59;;;;;;;33.83;21.75;;;;;;;30.99;35.74;99341.47;4920444;29;20445;-81
2021/08/17 13:19:26;;;;;;;22.90;12.88;;;;;;;31.14;34.70;99353.88;4919829;29;20051;-88
2021/08/17 13:21:53;;;;;;;21.88;10.70;;;;;;;31.19;34.73;99355.34;4919959;29;20118;-87
2021/08/17 13:24:19;;;;;;;25.58;13.77;;;;;;;31.27;35.10;99349.03;4918953;29;20418;-78
2021/08/17 13:26:45;;;;;;;45.47;32.35;;;;;;;31.32;33.85;99356.13;4920404;29;20076;-83
2021/08/17 13:29:11;;;;;;;;;;;;;;;31.31;33.60;99349.69;4920503;29;20044;-78
2021/08/17 13:31:37;;;;;;;27.52;15.38;;;;;;;31.33;34.20;99343.63;4918307;29;19931;-83
2021/08/17 13:34:03;;;;;;;;;;;;;;;31.43;33.96;99348.13;4919275;29;20561;-84
2021/08/17 13:36:29;;;;;;;32.58;16.60;;;;;;;31.44;33.45;99334.78;4918093;29;20026;-84
2021/08/17 13:38:55;;;;;;;26.83;15.55;;;;;;;31.50;33.17;99338.63;4918634;29;20040;-83
2021/08/17 13:41:21;;;;;;;33.22;16.27;;;;;;;31.52;34.09;99351.06;4918186;29;20422;-84
2021/08/17 13:43:48;;;;;;;19.33;9.95;;;;;;;31.44;32.81;99343.25;4917710;29;20441;-84
2021/08/17 13:46:14;;;;;;;38.67;11.52;;;;;;;31.41;33.51;99342.13;4917736;29;20052;-84
2021/08/17 13:48:40;;;;;;;21.40;10.65;;;;;;;31.41;32.73;99330.84;4917256;29;20502;-85
2021/08/17 13:51:06;;;;;;;23.60;10.07;;;;;;;31.43;33.20;99336.81;4917519;29;20046;-84
2021/08/17 13:53:34;;;;;;;19.63;10.63;;;;;;;31.37;32.64;99318.88;4917212;29;20040;-84
2021/08/17 13:56:01;;;;;;;20.85;11.50;;;;;;;31.48;32.76;99332.63;4917084;29;20696;-84
2021/08/17 13:58:32;;;;;;;23.13;13.02;;;;;;;31.46;32.34;99313.31;4899620;29;20079;-85
2021/08/17 14:01:03;;;;;;;29.95;19.90;;;;;;;31.48;32.87;99327.75;4917587;29;20139;-84
2021/08/17 14:03:29;;;;;;;52.75;27.10;;;;;;;31.49;32.29;99323.72;4916055;29;20461;-85
2021/08/17 14:05:56;;;;;;;32.17;18.05;;;;;;;31.40;32.61;99323.63;4916566;29;20068;-84
2021/08/17 14:08:21;;;;;;;18.15;10.90;;;;;;;31.34;32.33;99322.59;4914676;29;20056;-83
2021/08/17 14:10:48;;;;;;;18.15;9.98;;;;;;;31.26;33.15;99315.56;4915353;29;20044;-89
2021/08/17 14:13:14;;;;;;;14.48;9.85;;;;;;;31.24;32.65;99318.84;4930962;29;20405;-84
2021/08/17 14:15:42;;;;;;;19.00;10.32;;;;;;;31.16;33.29;99308.25;4915402;29;20054;-84
2021/08/17 14:18:08;;;;;;;19.55;9.10;;;;;;;31.18;32.99;99315.03;4914463;29;20449;-84
2021/08/17 14:20:34;;;;;;;18.77;9.02;;;;;;;31.13;32.32;99307.13;4914154;29;20040;-84
2021/08/17 14:23:01;;;;;;;27.52;13.25;;;;;;;30.98;32.35;99291.91;4916817;29;20454;-82
2021/08/17 14:25:29;;;;;;;26.38;13.57;;;;;;;31.05;32.58;99295.25;4912514;29;20124;-84
2021/08/17 14:27:56;;;;;;;23.38;14.27;;;;;;;31.16;32.67;99314.69;4914453;29;20494;-84
2021/08/17 14:30:22;;;;;;;27.17;15.00;;;;;;;31.00;33.82;99298.69;4914265;29;20051;-87
2021/08/17 14:32:48;;;;;;;31.48;11.90;;;;;;;30.92;33.00;99290.88;4914404;29;20048;-85
2021/08/17 14:35:16;;;;;;;29.25;12.25;;;;;;;31.02;33.85;99309.50;4920612;29;20060;-87
2021/08/17 14:37:42;;;;;;;27.00;11.15;;;;;;;30.85;33.25;99292.69;4913173;29;20047;-88
2021/08/17 14:40:08;;;;;;;;;;;;;;;30.84;33.30;99307.25;4913129;29;20047;-85
2021/08/17 14:42:34;;;;;;;43.20;10.80;;;;;;;30.83;33.15;99305.69;4911930;29;20411;-85
2021/08/17 14:45:00;;;;;;;35.05;10.18;;;;;;;30.74;33.23;99280.94;4912497;29;20036;-84
2021/08/17 14:47:26;;;;;;;;;;;;;;;30.87;33.20;99303.53;4913980;29;20220;-86
2021/08/17 14:49:52;;;;;;;21.52;11.02;;;;;;;30.88;33.25;99305.09;4912927;29;19930;-84
2021/08/17 14:52:18;;;;;;;83.97;13.93;;;;;;;30.74;33.36;99266.03;4912007;29;20040;-85
2021/08/17 14:54:44;;;;;;;31.55;10.40;;;;;;;30.83;33.46;99277.47;4911605;29;20048;-85
2021/08/17 14:57:10;;;;;;;30.45;11.85;;;;;;;30.89;33.24;99269.97;4912529;29;20095;-85
2021/08/17 14:59:39;;;;;;;20.60;9.77;;;;;;;30.98;33.13;99284.22;4912524;29;20055;-86
2021/08/17 15:02:05;;;;;;;14.98;9.20;;;;;;;30.96;33.45;99275.41;4911985;29;20043;-84
2021/08/17 15:04:30;;;;;;;;;;;;;;;30.95;33.88;99279.47;4910989;29;20040;-84
2021/08/17 15:06:57;;;;;;;26.33;11.07;;;;;;;30.71;33.72;99235.88;4911290;29;19985;-85
2021/08/17 15:09:22;;;;;;;;;;;;;;;30.91;33.83;99266.72;4910208;29;20044;-84
2021/08/17 15:11:49;;;;;;;39.75;9.98;;;;;;;30.69;34.78;99247.63;4910246;29;19903;-84
2021/08/17 15:14:16;;;;;;;59.17;10.27;;;;;;;30.77;34.25;99271.59;4909714;29;20091;-84
2021/08/17 15:16:42;;;;;;;17.33;9.20;;;;;;;30.70;34.28;99268.19;4909680;29;20160;-84
2021/08/17 15:19:08;;;;;;;21.13;9.73;;;;;;;30.75;35.09;99271.22;4909113;29;20536;-84
2021/08/17 15:21:34;;;;;;;22.17;9.07;;;;;;;30.51;34.83;99248.19;4908672;29;20047;-84
2021/08/17 15:24:01;;;;;;;40.67;9.20;;;;;;;30.51;35.57;99253.03;4909289;29;20040;-84
2021/08/17 15:26:27;;;;;;;38.90;9.73;;;;;;;30.40;36.28;99270.31;4908374;29;20056;-84
2021/08/17 15:28:54;;;;;;;33.28;9.43;;;;;;;30.31;37.71;99279.41;4908407;29;20044;-84
2021/08/17 15:31:20;;;;;;;29.88;9.13;;;;;;;30.16;37.13;99275.41;4908221;29;20054;-83
2021/08/17 15:33:53;;;;;;;31.92;12.38;;;;;;;29.95;37.17;99263.50;4907785;29;20433;-84
2021/08/17 15:36:18;;;;;;;;;;;;;;;29.90;38.17;99264.06;4907046;29;20048;-83
2021/08/17 15:38:45;;;;;;;33.33;13.88;;;;;;;29.77;38.23;99271.69;4921890;29;20014;-83
2021/08/17 15:41:11;;;;;;;79.13;14.05;;;;;;;29.62;38.28;99264.84;4907110;29;20095;-83
2021/08/17 15:43:38;;;;;;;74.10;14.60;;;;;;;29.55;38.80;99265.81;4906540;29;20058;-83
2021/08/17 15:46:04;;;;;;;;;;;;;;;29.47;39.18;99270.84;4907328;29;20123;-83
2021/08/17 15:48:30;;;;;;;70.82;18.88;;;;;;;29.38;38.76;99264.28;4906410;29;19923;-83
2021/08/17 15:50:56;;;;;;;87.22;16.70;;;;;;;29.23;39.83;99255.38;4906392;29;20040;-82
2021/08/17 15:53:22;;;;;;;79.50;15.70;;;;;;;29.09;40.88;99256.53;4906104;29;20036;-82